Bowerman Airport Hoquiam US
ICAO: KHQM
IATA: HQM
Category: Medium
Scheduled Services: No

Elevation: 18 ft
TransAlt. 18000 ft.

Airport Communications:
ASOS:135.775
SEATTLE CNTR:128.3
SEATTLE RDO:122.2
CTAF/UNICOM:122.7

KHQM Zoom In..

If you have problems with the map follow the link
https://www.worldairports.se/pages/airport.php?
ICAO=KHQM

Runways:

(A) RW 06 length 5000 ft width 150 ft
---- / hdg 60

(B) RW 24 length 5000 ft width 150 ft
ILS 108.70 / hdg 240

Location; KHQM
Day. 14 / Time. 20.53 Zulu
* Altimeter: 29.46
* Temperature: 13° c. 55.4°f.
* Wind from: 140° Speed 25 kn with Gusts up to 33 kn.
Dewpoint: 08° c.
Visibility: 7 Statute Miles.
Clouds: Few 3000 ft.
Clouds: Scattered 3900 ft.
Clouds: Broken 9000 ft.

KHQM 142053Z AUTO 14025G33KT 7SM FEW030 SCT039 BKN090 13/08 A2946 RMK AO2 PK WND 15038/2024 SLP980 T01280078 58031


Wind From 140°
Speed 25 kn.

 
 
jpsmedia.com for Web Design worldairports.se 2018   terms of use